Time;durP1;ratioP1;P1;durP2;ratioP2;P2;SDS_P1;SDS_P2;PMS_P1;PMS_P2;Temp;Humidity;BMP_temperature;BMP_pressure;BME280_temperature;BME280_humidity;BME280_pressure;Samples;Min_cycle;Max_cycle;Signal;HPM_P1;HPM_P2
2022/11/22 00:02:06;;;;;;;;;;;;;;;;;;5051012;28;920;-67
2022/11/22 00:04:32;;;;;;;;;;;;;;;;;;5051193;28;928;-67
2022/11/22 00:06:57;;;;;;;;;;;;;;;;;;5050906;28;967;-67
2022/11/22 00:09:22;;;;;;;;;;;;;;;;;;5050152;28;1025;-67
2022/11/22 00:11:47;;;;;;;;;;;;;;;;;;5033183;28;1150;-67
2022/11/22 00:14:13;;;;;;;;;;;;;;;;;;5050150;28;908;-67
2022/11/22 00:16:38;;;;;;;;;;;;;;;;;;5049535;28;1211;-67
2022/11/22 00:19:03;;;;;;;;;;;;;;;;;;5050991;28;1892;-67
2022/11/22 00:21:28;;;;;;;;;;;;;;;;;;5050862;28;876;-67
2022/11/22 00:23:57;;;;;;;;;;;;;;;;;;5049066;28;908;-67
2022/11/22 00:26:23;;;;;;;;;;;;;;;;;;5050283;28;1259;-68
2022/11/22 00:28:48;;;;;;;;;;;;;;;;;;5051432;28;897;-67
2022/11/22 00:31:13;;;;;;;;;;;;;;;;;;5052206;28;928;-67
2022/11/22 00:33:38;;;;;;;;;;;;;;;;;;5051488;28;959;-67
2022/11/22 00:36:04;;;;;;;;;;;;;;;;;;5050757;28;885;-67
2022/11/22 00:38:29;;;;;;;;;;;;;;;;;;5050387;28;1878;-67
2022/11/22 00:40:54;;;;;;;;;;;;;;;;;;5051254;28;813;-67
2022/11/22 00:43:19;;;;;;;;;;;;;;;;;;5050714;28;908;-67
2022/11/22 00:45:45;;;;;;;;;;;;;;;;;;5050816;28;1047;-66
2022/11/22 00:48:10;;;;;;;;;;;;;;;;;;5050559;28;1078;-67
2022/11/22 00:50:35;;;;;;;;;;;;;;;;;;5050626;28;766;-67
2022/11/22 00:53:00;;;;;;;;;;;;;;;;;;5048933;28;1187;-67
2022/11/22 00:55:26;;;;;;;;;;;;;;;;;;5050278;28;1113;-67
2022/11/22 00:57:51;;;;;;;;;;;;;;;;;;5048574;28;1910;-67
2022/11/22 01:00:16;;;;;;;;;;;;;;;;;;5050517;28;987;-67
2022/11/22 01:02:41;;;;;;;;;;;;;;;;;;5049813;28;853;-67
2022/11/22 01:05:07;;;;;;;;;;;;;;;;;;5041052;28;1196;-67
2022/11/22 01:07:32;;;;;;;;;;;;;;;;;;5030152;28;1233;-67
2022/11/22 01:09:57;;;;;;;;;;;;;;;;;;5048659;28;1153;-67
2022/11/22 01:12:23;;;;;;;;;;;;;;;;;;5059470;28;1202;-66
2022/11/22 01:14:48;;;;;;;;;;;;;;;;;;5077119;28;1215;-67
2022/11/22 01:17:13;;;;;;;;;;;;;;;;;;5050361;28;1910;-67
2022/11/22 01:19:38;;;;;;;;;;;;;;;;;;5079397;28;1184;-67
2022/11/22 01:22:04;;;;;;;;;;;;;;;;;;5080838;28;1152;-67
2022/11/22 01:24:29;;;;;;;;;;;;;;;;;;5071940;28;1151;-67
2022/11/22 01:26:54;;;;;;;;;;;;;;;;;;5090018;28;946;-67
2022/11/22 01:29:19;;;;;;;;;;;;;;;;;;5072336;28;1011;-66
2022/11/22 01:31:45;;;;;;;;;;;;;;;;;;5090032;28;1022;-66
2022/11/22 01:34:10;;;;;;;;;;;;;;;;;;5055884;28;845;-66
2022/11/22 01:36:35;;;;;;;;;;;;;;;;;;5090177;28;659;-67
2022/11/22 01:39:00;;;;;;;;;;;;;;;;;;5054865;28;1973;-67
2022/11/22 01:41:26;;;;;;;;;;;;;;;;;;5090038;28;915;-67
2022/11/22 01:43:51;;;;;;;;;;;;;;;;;;5089847;28;904;-67
2022/11/22 01:46:36;;;;;;;;;;;;;;;;;;5071844;28;1195;-67
2022/11/22 01:49:04;;;;;;;;;;;;;;;;;;5047480;28;1286;-67
2022/11/22 01:51:29;;;;;;;;;;;;;;;;;;5047987;28;1203;-67
2022/11/22 01:53:57;;;;;;;;;;;;;;;;;;5049430;28;897;-67
2022/11/22 01:56:24;;;;;;;;;;;;;;;;;;5049629;28;1043;-67
2022/11/22 01:58:52;;;;;;;;;;;;;;;;;;5049126;28;2048;-67
2022/11/22 02:01:18;;;;;;;;;;;;;;;;;;5050781;28;951;-67
2022/11/22 02:03:46;;;;;;;;;;;;;;;;;;5048856;28;1355;-67
2022/11/22 02:06:11;;;;;;;;;;;;;;;;;;5051013;28;936;-67
2022/11/22 02:08:40;;;;;;;;;;;;;;;;;;5048513;28;1270;-67
2022/11/22 02:11:05;;;;;;;;;;;;;;;;;;5050723;28;900;-67
2022/11/22 02:13:33;;;;;;;;;;;;;;;;;;5049299;28;916;-67
2022/11/22 02:15:59;;;;;;;;;;;;;;;;;;5048881;28;888;-67
2022/11/22 02:18:24;;;;;;;;;;;;;;;;;;5048220;28;1902;-67
2022/11/22 02:20:49;;;;;;;;;;;;;;;;;;5048887;28;1004;-67
2022/11/22 02:23:19;;;;;;;;;;;;;;;;;;5049710;28;891;-67
2022/11/22 02:25:52;;;;;;;;;;;;;;;;;;5048855;28;1322;-65
2022/11/22 02:28:17;;;;;;;;;;;;;;;;;;5053386;28;900;-66
2022/11/22 02:30:42;;;;;;;;;;;;;;;;;;5052750;28;896;-66
2022/11/22 02:33:08;;;;;;;;;;;;;;;;;;5053545;28;996;-66
2022/11/22 02:35:33;;;;;;;;;;;;;;;;;;5053106;28;900;-66
2022/11/22 02:38:07;;;;;;;;;;;;;;;;;;5052756;28;1914;-66
2022/11/22 02:40:55;;;;;;;;;;;;;;;;;;5053133;28;943;-66
2022/11/22 02:43:25;;;;;;;;;;;;;;;;;;5042142;28;1143;-65
2022/11/22 02:45:50;;;;;;;;;;;;;;;;;;5052349;28;982;-66
2022/11/22 02:48:17;;;;;;;;;;;;;;;;;;5034733;28;2560;-66
2022/11/22 02:50:42;;;;;;;;;;;;;;;;;;5052766;28;817;-67
2022/11/22 02:53:08;;;;;;;;;;;;;;;;;;5053645;28;857;-65
2022/11/22 02:55:34;;;;;;;;;;;;;;;;;;5051646;28;860;-66
2022/11/22 02:57:59;;;;;;;;;;;;;;;;;;5051110;28;1918;-66
2022/11/22 03:00:25;;;;;;;;;;;;;;;;;;5053401;28;855;-67
2022/11/22 03:02:50;;;;;;;;;;;;;;;;;;5052246;28;907;-66
2022/11/22 03:05:16;;;;;;;;;;;;;;;;;;5035080;28;1342;-65
2022/11/22 03:07:41;;;;;;;;;;;;;;;;;;5051031;28;1314;-65
2022/11/22 03:10:07;;;;;;;;;;;;;;;;;;5051922;28;813;-67
2022/11/22 03:12:32;;;;;;;;;;;;;;;;;;5052944;28;1002;-67
2022/11/22 03:14:57;;;;;;;;;;;;;;;;;;5051176;28;1297;-67
2022/11/22 03:17:22;;;;;;;;;;;;;;;;;;5052594;28;1894;-66
2022/11/22 03:19:47;;;;;;;;;;;;;;;;;;5051898;28;897;-67
2022/11/22 03:22:13;;;;;;;;;;;;;;;;;;5052689;28;995;-65
2022/11/22 03:24:38;;;;;;;;;;;;;;;;;;5034309;28;1232;-66
2022/11/22 03:27:03;;;;;;;;;;;;;;;;;;5052855;28;1051;-65
2022/11/22 03:29:29;;;;;;;;;;;;;;;;;;5052059;28;821;-66
2022/11/22 03:31:54;;;;;;;;;;;;;;;;;;5052406;28;940;-67
2022/11/22 03:34:19;;;;;;;;;;;;;;;;;;5053283;28;884;-66
2022/11/22 03:36:44;;;;;;;;;;;;;;;;;;5050403;28;1424;-65
2022/11/22 03:39:10;;;;;;;;;;;;;;;;;;5052400;28;1902;-66
2022/11/22 03:41:35;;;;;;;;;;;;;;;;;;5051384;28;1215;-66
2022/11/22 03:44:00;;;;;;;;;;;;;;;;;;5052852;28;766;-66
2022/11/22 03:46:26;;;;;;;;;;;;;;;;;;5052212;28;915;-67
2022/11/22 03:48:51;;;;;;;;;;;;;;;;;;5032833;28;1184;-66
2022/11/22 03:51:16;;;;;;;;;;;;;;;;;;5051954;28;884;-67
2022/11/22 03:53:41;;;;;;;;;;;;;;;;;;5051363;28;837;-66
2022/11/22 03:56:07;;;;;;;;;;;;;;;;;;5051661;28;837;-66
2022/11/22 03:58:32;;;;;;;;;;;;;;;;;;5051220;28;1902;-67
2022/11/22 04:00:58;;;;;;;;;;;;;;;;;;5051098;28;849;-67
2022/11/22 04:03:23;;;;;;;;;;;;;;;;;;5051358;28;932;-67
2022/11/22 04:05:49;;;;;;;;;;;;;;;;;;5050556;28;880;-66
2022/11/22 04:08:14;;;;;;;;;;;;;;;;;;5049970;28;1203;-66
2022/11/22 04:10:40;;;;;;;;;;;;;;;;;;5051231;28;829;-65
2022/11/22 04:13:05;;;;;;;;;;;;;;;;;;5050897;28;829;-67
2022/11/22 04:15:30;;;;;;;;;;;;;;;;;;5051312;28;1003;-66
2022/11/22 04:17:55;;;;;;;;;;;;;;;;;;5048812;28;1878;-66
2022/11/22 04:23:10;;;;;;;;;;;;;;;;;;5051207;28;994;-66
2022/11/22 04:25:37;;;;;;;;;;;;;;;;;;5051329;28;872;-65
2022/11/22 04:28:03;;;;;;;;;;;;;;;;;;5050222;28;880;-67
2022/11/22 04:33:13;;;;;;;;;;;;;;;;;;5051213;28;675;-66
2022/11/22 04:35:39;;;;;;;;;;;;;;;;;;5051023;28;841;-66
2022/11/22 04:38:04;;;;;;;;;;;;;;;;;;5050965;28;1950;-66
2022/11/22 04:40:30;;;;;;;;;;;;;;;;;;5050857;28;830;-66
2022/11/22 04:45:39;;;;;;;;;;;;;;;;;;5051190;28;674;-66
2022/11/22 04:48:05;;;;;;;;;;;;;;;;;;5051133;28;1046;-65
2022/11/22 04:53:15;;;;;;;;;;;;;;;;;;5052471;28;710;-66
2022/11/22 04:55:43;;;;;;;;;;;;;;;;;;5051658;28;1105;-66
2022/11/22 04:58:08;;;;;;;;;;;;;;;;;;5050686;28;1906;-66
2022/11/22 05:00:34;;;;;;;;;;;;;;;;;;5051658;28;967;-67
2022/11/22 05:02:59;;;;;;;;;;;;;;;;;;5049667;28;1281;-66
2022/11/22 05:05:25;;;;;;;;;;;;;;;;;;5049956;28;1081;-66
2022/11/22 05:07:50;;;;;;;;;;;;;;;;;;5048912;28;913;-66
2022/11/22 05:10:15;;;;;;;;;;;;;;;;;;5049076;28;1216;-66
2022/11/22 05:12:41;;;;;;;;;;;;;;;;;;5048784;28;837;-66
2022/11/22 05:15:07;;;;;;;;;;;;;;;;;;5049903;28;821;-66
2022/11/22 05:17:32;;;;;;;;;;;;;;;;;;5050102;28;1902;-66
2022/11/22 05:19:57;;;;;;;;;;;;;;;;;;5048077;28;1096;-65
2022/11/22 05:25:09;;;;;;;;;;;;;;;;;;5049869;28;931;-66
2022/11/22 05:27:34;;;;;;;;;;;;;;;;;;5050488;28;758;-66
2022/11/22 05:30:00;;;;;;;;;;;;;;;;;;5049389;28;814;-66
2022/11/22 05:32:25;;;;;;;;;;;;;;;;;;5050246;28;813;-66
2022/11/22 05:34:50;;;;;;;;;;;;;;;;;;5049466;28;896;-66
2022/11/22 05:37:16;;;;;;;;;;;;;;;;;;5048208;28;1949;-66
2022/11/22 05:39:41;;;;;;;;;;;;;;;;;;5049565;28;1151;-65
2022/11/22 05:42:06;;;;;;;;;;;;;;;;;;5049720;28;773;-66
2022/11/22 05:44:31;;;;;;;;;;;;;;;;;;5048544;28;1306;-66
2022/11/22 05:46:57;;;;;;;;;;;;;;;;;;5049252;28;896;-65
2022/11/22 05:49:22;;;;;;;;;;;;;;;;;;5086952;28;1219;-65
2022/11/22 05:51:48;;;;;;;;;;;;;;;;;;5070964;28;1349;-65
2022/11/22 05:54:13;;;;;;;;;;;;;;;;;;5055044;28;1231;-65
2022/11/22 05:56:38;;;;;;;;;;;;;;;;;;5071885;28;1250;-66
2022/11/22 05:59:04;;;;;;;;;;;;;;;;;;5089179;28;1898;-66
2022/11/22 06:01:29;;;;;;;;;;;;;;;;;;5055899;28;1183;-66
2022/11/22 06:03:54;;;;;;;;;;;;;;;;;;5051785;28;1286;-65
2022/11/22 06:06:20;;;;;;;;;;;;;;;;;;5052290;28;1341;-66
2022/11/22 06:08:46;;;;;;;;;;;;;;;;;;5053120;28;1027;-66
2022/11/22 06:11:14;;;;;;;;;;;;;;;;;;5053502;28;845;-66
2022/11/22 06:13:40;;;;;;;;;;;;;;;;;;5053822;28;778;-66
2022/11/22 06:16:06;;;;;;;;;;;;;;;;;;5053005;28;968;-66
2022/11/22 06:18:31;;;;;;;;;;;;;;;;;;5053875;28;1894;-66
2022/11/22 06:21:00;;;;;;;;;;;;;;;;;;5053349;28;896;-66
2022/11/22 06:23:26;;;;;;;;;;;;;;;;;;5053800;28;972;-65
2022/11/22 06:25:59;;;;;;;;;;;;;;;;;;5052213;28;1252;-66
2022/11/22 06:28:25;;;;;;;;;;;;;;;;;;5052456;28;1445;-65
2022/11/22 06:30:50;;;;;;;;;;;;;;;;;;5053019;28;1120;-66
2022/11/22 06:33:15;;;;;;;;;;;;;;;;;;5018195;28;1296;-65
2022/11/22 06:35:40;;;;;;;;;;;;;;;;;;5053298;28;1188;-66
2022/11/22 06:38:06;;;;;;;;;;;;;;;;;;5052913;28;1898;-65
2022/11/22 06:40:31;;;;;;;;;;;;;;;;;;5053252;28;789;-65
2022/11/22 06:42:56;;;;;;;;;;;;;;;;;;5053590;28;983;-65
2022/11/22 06:45:21;;;;;;;;;;;;;;;;;;5052736;28;1168;-65
2022/11/22 06:47:47;;;;;;;;;;;;;;;;;;5053374;28;1193;-65
2022/11/22 06:50:12;;;;;;;;;;;;;;;;;;5053691;28;892;-65
2022/11/22 06:52:37;;;;;;;;;;;;;;;;;;5054064;28;845;-65
2022/11/22 06:55:03;;;;;;;;;;;;;;;;;;5052916;28;1007;-65
2022/11/22 06:57:28;;;;;;;;;;;;;;;;;;5053462;28;1997;-65
2022/11/22 06:59:53;;;;;;;;;;;;;;;;;;5051816;28;1015;-65
2022/11/22 07:02:19;;;;;;;;;;;;;;;;;;5053150;28;900;-65
2022/11/22 07:04:44;;;;;;;;;;;;;;;;;;5051292;28;860;-64
2022/11/22 07:07:09;;;;;;;;;;;;;;;;;;5051868;28;896;-64
2022/11/22 07:09:37;;;;;;;;;;;;;;;;;;5052532;28;943;-64
2022/11/22 07:12:03;;;;;;;;;;;;;;;;;;5050304;28;856;-65
2022/11/22 07:14:28;;;;;;;;;;;;;;;;;;5051317;28;1108;-65
2022/11/22 07:16:54;;;;;;;;;;;;;;;;;;5052124;28;829;-65
2022/11/22 07:19:19;;;;;;;;;;;;;;;;;;5050753;28;1972;-65
2022/11/22 07:21:44;;;;;;;;;;;;;;;;;;5051950;28;908;-64
2022/11/22 07:24:09;;;;;;;;;;;;;;;;;;5033800;28;1088;-64
2022/11/22 07:26:35;;;;;;;;;;;;;;;;;;5050779;28;889;-64
2022/11/22 07:29:00;;;;;;;;;;;;;;;;;;5051540;28;864;-65
2022/11/22 07:31:25;;;;;;;;;;;;;;;;;;5051362;28;880;-65
2022/11/22 07:33:50;;;;;;;;;;;;;;;;;;5048830;28;841;-64
2022/11/22 07:36:20;;;;;;;;;;;;;;;;;;5049172;28;1069;-64
2022/11/22 07:38:46;;;;;;;;;;;;;;;;;;5050655;28;1886;-64
2022/11/22 07:41:11;;;;;;;;;;;;;;;;;;5049248;28;1342;-64
2022/11/22 07:43:37;;;;;;;;;;;;;;;;;;5050658;28;1192;-64
2022/11/22 07:46:03;;;;;;;;;;;;;;;;;;5033937;28;1260;-64
2022/11/22 07:48:29;;;;;;;;;;;;;;;;;;5051744;28;1197;-64
2022/11/22 07:50:54;;;;;;;;;;;;;;;;;;5051439;28;909;-64
2022/11/22 07:53:19;;;;;;;;;;;;;;;;;;5051116;28;1251;-64
2022/11/22 07:55:45;;;;;;;;;;;;;;;;;;5051171;28;821;-64
2022/11/22 07:58:10;;;;;;;;;;;;;;;;;;5050833;28;1904;-64
2022/11/22 08:00:35;;;;;;;;;;;;;;;;;;5051450;28;1124;-64
2022/11/22 08:03:00;;;;;;;;;;;;;;;;;;5049655;28;853;-64
2022/11/22 08:05:26;;;;;;;;;;;;;;;;;;5048785;28;1298;-65
2022/11/22 08:07:51;;;;;;;;;;;;;;;;;;5051214;28;908;-64
2022/11/22 08:10:17;;;;;;;;;;;;;;;;;;5049978;28;1290;-64
2022/11/22 08:12:43;;;;;;;;;;;;;;;;;;5051282;28;849;-63
2022/11/22 08:15:09;;;;;;;;;;;;;;;;;;5051384;28;832;-63
2022/11/22 08:17:34;;;;;;;;;;;;;;;;;;5050380;28;1898;-62
2022/11/22 08:19:59;;;;;;;;;;;;;;;;;;5051271;28;960;-65
2022/11/22 08:22:24;;;;;;;;;;;;;;;;;;5049952;28;1152;-65
2022/11/22 08:24:50;;;;;;;;;;;;;;;;;;5050162;28;1046;-64
2022/11/22 08:27:15;;;;;;;;;;;;;;;;;;5052145;28;1000;-65
2022/11/22 08:29:40;;;;;;;;;;;;;;;;;;5052731;28;1000;-64
2022/11/22 08:32:06;;;;;;;;;;;;;;;;;;5051566;28;899;-65
2022/11/22 08:34:31;;;;;;;;;;;;;;;;;;5052824;28;849;-65
2022/11/22 08:36:56;;;;;;;;;;;;;;;;;;5016722;28;1435;-65
2022/11/22 08:39:21;;;;;;;;;;;;;;;;;;5050879;28;1913;-65
2022/11/22 08:41:47;;;;;;;;;;;;;;;;;;5051081;28;896;-64
2022/11/22 08:44:12;;;;;;;;;;;;;;;;;;5032082;28;1289;-65
2022/11/22 08:46:38;;;;;;;;;;;;;;;;;;5033177;28;1328;-65
2022/11/22 08:49:05;;;;;;;;;;;;;;;;;;5032026;28;1275;-65
2022/11/22 08:51:31;;;;;;;;;;;;;;;;;;5032965;28;635;-65
2022/11/22 08:53:56;;;;;;;;;;;;;;;;;;5050557;28;853;-65
2022/11/22 08:56:21;;;;;;;;;;;;;;;;;;5032868;28;1279;-64
2022/11/22 08:58:46;;;;;;;;;;;;;;;;;;5050874;28;1989;-65
2022/11/22 09:01:14;;;;;;;;;;;;;;;;;;5032686;28;815;-65
2022/11/22 09:03:39;;;;;;;;;;;;;;;;;;5051100;28;801;-65
2022/11/22 09:06:06;;;;;;;;;;;;;;;;;;5050346;28;825;-64
2022/11/22 09:08:32;;;;;;;;;;;;;;;;;;5050554;28;964;-65
2022/11/22 09:11:01;;;;;;;;;;;;;;;;;;5015768;28;1496;-65
2022/11/22 09:13:27;;;;;;;;;;;;;;;;;;5050279;28;825;-66
2022/11/22 09:15:52;;;;;;;;;;;;;;;;;;5050053;28;928;-64
2022/11/22 09:18:17;;;;;;;;;;;;;;;;;;5032461;28;1934;-64
2022/11/22 09:20:42;;;;;;;;;;;;;;;;;;5032952;28;829;-65
2022/11/22 09:23:08;;;;;;;;;;;;;;;;;;5031590;28;1169;-65
2022/11/22 09:25:33;;;;;;;;;;;;;;;;;;5032560;28;798;-65
2022/11/22 09:28:01;;;;;;;;;;;;;;;;;;5049433;28;1008;-65
2022/11/22 09:30:26;;;;;;;;;;;;;;;;;;5031706;28;1259;-65
2022/11/22 09:32:52;;;;;;;;;;;;;;;;;;5048701;28;1164;-65
2022/11/22 09:35:19;;;;;;;;;;;;;;;;;;5047858;28;983;-65
2022/11/22 09:37:44;;;;;;;;;;;;;;;;;;5048976;28;1890;-65
2022/11/22 09:40:09;;;;;;;;;;;;;;;;;;5050631;28;920;-64
2022/11/22 09:42:35;;;;;;;;;;;;;;;;;;5048580;28;1287;-64
2022/11/22 09:45:00;;;;;;;;;;;;;;;;;;5049948;28;806;-64
2022/11/22 09:47:38;;;;;;;;;;;;;;;;;;5049968;28;873;-64
2022/11/22 09:50:36;;;;;;;;;;;;;;;;;;5048375;28;1389;-64
2022/11/22 09:53:07;;;;;;;;;;;;;;;;;;5016846;28;1314;-65
2022/11/22 09:55:35;;;;;;;;;;;;;;;;;;5049394;28;1353;-65
2022/11/22 09:58:04;;;;;;;;;;;;;;;;;;5050536;28;1979;-65
2022/11/22 10:00:30;;;;;;;;;;;;;;;;;;5049661;28;1235;-65
2022/11/22 10:02:59;;;;;;;;;;;;;;;;;;5050261;28;1093;-65
2022/11/22 10:05:26;;;;;;;;;;;;;;;;;;5051000;28;846;-65
2022/11/22 10:08:03;;;;;;;;;;;;;;;;;;5048910;28;1105;-65
2022/11/22 10:10:48;;;;;;;;;;;;;;;;;;5050285;28;837;-64
2022/11/22 10:13:16;;;;;;;;;;;;;;;;;;5049638;28;1363;-64
2022/11/22 10:15:56;;;;;;;;;;;;;;;;;;5050567;28;1007;-65
2022/11/22 10:18:30;;;;;;;;;;;;;;;;;;5050057;28;1937;-64
2022/11/22 10:20:56;;;;;;;;;;;;;;;;;;5049723;28;1027;-64
2022/11/22 10:23:22;;;;;;;;;;;;;;;;;;5049476;28;990;-65
2022/11/22 10:25:55;;;;;;;;;;;;;;;;;;5050263;28;872;-64
2022/11/22 10:28:33;;;;;;;;;;;;;;;;;;5049658;28;911;-64
2022/11/22 10:31:10;;;;;;;;;;;;;;;;;;5049720;28;824;-65
2022/11/22 10:33:41;;;;;;;;;;;;;;;;;;5049594;28;916;-64
2022/11/22 10:36:25;;;;;;;;;;;;;;;;;;5049124;28;1091;-64
2022/11/22 10:39:10;;;;;;;;;;;;;;;;;;5047875;28;1906;-64
2022/11/22 10:41:54;;;;;;;;;;;;;;;;;;5049328;28;825;-65
2022/11/22 10:44:19;;;;;;;;;;;;;;;;;;5049997;28;861;-65
2022/11/22 10:47:03;;;;;;;;;;;;;;;;;;5049062;28;1243;-65
2022/11/22 10:49:46;;;;;;;;;;;;;;;;;;5052779;28;1251;-65
2022/11/22 10:52:14;;;;;;;;;;;;;;;;;;5052927;28;1035;-64
2022/11/22 10:55:01;;;;;;;;;;;;;;;;;;5052992;28;943;-64
2022/11/22 10:57:45;;;;;;;;;;;;;;;;;;5086023;28;1910;-64
2022/11/22 11:00:10;;;;;;;;;;;;;;;;;;5085544;28;1164;-64
2022/11/22 11:02:46;;;;;;;;;;;;;;;;;;5070269;28;1295;-64
2022/11/22 11:05:13;;;;;;;;;;;;;;;;;;5090163;28;1129;-64
2022/11/22 11:07:42;;;;;;;;;;;;;;;;;;5091756;28;1129;-64
2022/11/22 11:10:16;;;;;;;;;;;;;;;;;;5067168;28;1191;-65
2022/11/22 11:12:45;;;;;;;;;;;;;;;;;;5051230;28;1169;-65
2022/11/22 11:15:17;;;;;;;;;;;;;;;;;;5050618;28;1203;-64
2022/11/22 11:17:44;;;;;;;;;;;;;;;;;;5065922;28;1933;-64
2022/11/22 11:20:15;;;;;;;;;;;;;;;;;;5091555;28;1151;-64
2022/11/22 11:22:41;;;;;;;;;;;;;;;;;;5074395;28;1268;-64
2022/11/22 11:25:24;;;;;;;;;;;;;;;;;;5092304;28;1007;-64
2022/11/22 11:27:50;;;;;;;;;;;;;;;;;;5092693;28;896;-64
2022/11/22 11:30:15;;;;;;;;;;;;;;;;;;5074322;28;916;-65
2022/11/22 11:32:52;;;;;;;;;;;;;;;;;;5074095;28;1191;-65
2022/11/22 11:35:18;;;;;;;;;;;;;;;;;;5092035;28;912;-65
2022/11/22 11:37:43;;;;;;;;;;;;;;;;;;5074070;28;1969;-65
2022/11/22 11:40:28;;;;;;;;;;;;;;;;;;5092400;28;832;-65
2022/11/22 11:43:26;;;;;;;;;;;;;;;;;;5091887;28;868;-66
2022/11/22 11:45:51;;;;;;;;;;;;;;;;;;5030133;28;1196;-65
2022/11/22 11:48:24;;;;;;;;;;;;;;;;;;5075017;28;1220;-65
2022/11/22 11:50:49;;;;;;;;;;;;;;;;;;5092976;28;892;-66
2022/11/22 11:53:21;;;;;;;;;;;;;;;;;;5057876;28;1212;-66
2022/11/22 11:55:46;;;;;;;;;;;;;;;;;;5091390;28;1333;-65
2022/11/22 11:58:18;;;;;;;;;;;;;;;;;;5073018;28;1969;-66
2022/11/22 12:00:44;;;;;;;;;;;;;;;;;;5091736;28;904;-66
2022/11/22 12:03:11;;;;;;;;;;;;;;;;;;5091702;28;817;-65
2022/11/22 12:05:36;;;;;;;;;;;;;;;;;;5091716;28;829;-66
2022/11/22 12:08:02;;;;;;;;;;;;;;;;;;5073037;28;1426;-64
2022/11/22 12:10:40;;;;;;;;;;;;;;;;;;5073673;28;1070;-65
2022/11/22 12:13:08;;;;;;;;;;;;;;;;;;5091101;28;1239;-65
2022/11/22 12:15:46;;;;;;;;;;;;;;;;;;5073799;28;1203;-65
2022/11/22 12:18:19;;;;;;;;;;;;;;;;;;5073281;28;1910;-65
2022/11/22 12:20:51;;;;;;;;;;;;;;;;;;5092149;28;785;-65
2022/11/22 12:23:19;;;;;;;;;;;;;;;;;;5091344;28;966;-64
2022/11/22 12:25:46;;;;;;;;;;;;;;;;;;5091897;28;872;-66
2022/11/22 12:28:19;;;;;;;;;;;;;;;;;;5091614;28;900;-65
2022/11/22 12:30:48;;;;;;;;;;;;;;;;;;5091833;28;1003;-65
2022/11/22 12:33:17;;;;;;;;;;;;;;;;;;5091508;28;825;-65
2022/11/22 12:35:44;;;;;;;;;;;;;;;;;;5073421;28;1042;-65
2022/11/22 12:38:17;;;;;;;;;;;;;;;;;;5091729;28;1897;-64
2022/11/22 12:40:45;;;;;;;;;;;;;;;;;;5091641;28;821;-65
2022/11/22 12:43:18;;;;;;;;;;;;;;;;;;5089640;28;1166;-65
2022/11/22 12:46:04;;;;;;;;;;;;;;;;;;5091289;28;900;-65
2022/11/22 12:48:47;;;;;;;;;;;;;;;;;;5090566;28;1720;-64
2022/11/22 12:51:25;;;;;;;;;;;;;;;;;;5090934;28;994;-65
2022/11/22 12:53:51;;;;;;;;;;;;;;;;;;5090439;28;1251;-65
2022/11/22 12:56:25;;;;;;;;;;;;;;;;;;5090644;28;897;-65
2022/11/22 12:58:50;;;;;;;;;;;;;;;;;;5090672;28;1967;-65
2022/11/22 13:01:18;;;;;;;;;;;;;;;;;;5090671;28;916;-65
2022/11/22 13:03:51;;;;;;;;;;;;;;;;;;5090991;28;841;-64
2022/11/22 13:06:19;;;;;;;;;;;;;;;;;;5090613;28;817;-64
2022/11/22 13:09:10;;;;;;;;;;;;;;;;;;5090926;28;885;-65
2022/11/22 13:11:41;;;;;;;;;;;;;;;;;;5090609;28;955;-66
2022/11/22 13:14:12;;;;;;;;;;;;;;;;;;5090682;28;952;-65
2022/11/22 13:16:38;;;;;;;;;;;;;;;;;;5072839;28;1263;-66
2022/11/22 13:19:05;;;;;;;;;;;;;;;;;;5072238;28;1957;-66
2022/11/22 13:21:58;;;;;;;;;;;;;;;;;;5091121;28;840;-66
2022/11/22 13:24:27;;;;;;;;;;;;;;;;;;5090709;28;910;-66
2022/11/22 13:27:07;;;;;;;;;;;;;;;;;;5073144;28;1211;-64
2022/11/22 13:29:34;;;;;;;;;;;;;;;;;;5073996;28;1098;-65
2022/11/22 13:32:01;;;;;;;;;;;;;;;;;;5072631;28;1244;-65
2022/11/22 13:34:26;;;;;;;;;;;;;;;;;;5090199;28;1245;-66
2022/11/22 13:36:52;;;;;;;;;;;;;;;;;;5091453;28;778;-65
2022/11/22 13:39:19;;;;;;;;;;;;;;;;;;5090368;28;1878;-64
2022/11/22 13:41:56;;;;;;;;;;;;;;;;;;5090938;28;1590;-64
2022/11/22 13:44:21;;;;;;;;;;;;;;;;;;5091321;28;789;-64
2022/11/22 13:46:54;;;;;;;;;;;;;;;;;;5090636;28;1062;-64
2022/11/22 13:49:43;;;;;;;;;;;;;;;;;;5089848;28;1100;-66
2022/11/22 13:52:11;;;;;;;;;;;;;;;;;;5072691;28;1206;-66
2022/11/22 13:54:37;;;;;;;;;;;;;;;;;;5090938;28;924;-64
2022/11/22 13:57:25;;;;;;;;;;;;;;;;;;5089781;28;895;-66
2022/11/22 14:00:08;;;;;;;;;;;;;;;;;;5079356;28;1169;-64
2022/11/22 14:02:34;;;;;;;;;;;;;;;;;;5090283;28;868;-66
2022/11/22 14:04:59;;;;;;;;;;;;;;;;;;5089869;28;896;-64
2022/11/22 14:07:29;;;;;;;;;;;;;;;;;;5090176;28;927;-65
2022/11/22 14:09:55;;;;;;;;;;;;;;;;;;5072008;28;1191;-65
2022/11/22 14:12:31;;;;;;;;;;;;;;;;;;5089706;28;852;-65
2022/11/22 14:14:59;;;;;;;;;;;;;;;;;;5090192;28;824;-66
2022/11/22 14:17:36;;;;;;;;;;;;;;;;;;5071589;28;1965;-66
2022/11/22 14:20:20;;;;;;;;;;;;;;;;;;5089688;28;939;-65
2022/11/22 14:23:02;;;;;;;;;;;;;;;;;;5092695;28;975;-66
2022/11/22 14:25:47;;;;;;;;;;;;;;;;;;5092629;28;1187;-64
2022/11/22 14:28:30;;;;;;;;;;;;;;;;;;5092811;28;1159;-63
2022/11/22 14:30:56;;;;;;;;;;;;;;;;;;5093651;28;825;-64
2022/11/22 14:33:22;;;;;;;;;;;;;;;;;;5092974;28;983;-64
2022/11/22 14:36:06;;;;;;;;;;;;;;;;;;5093232;28;836;-64
2022/11/22 14:38:31;;;;;;;;;;;;;;;;;;5093481;28;1980;-65
2022/11/22 14:41:15;;;;;;;;;;;;;;;;;;5093156;28;892;-64
2022/11/22 14:43:41;;;;;;;;;;;;;;;;;;5093507;28;837;-65
2022/11/22 14:46:17;;;;;;;;;;;;;;;;;;5092585;28;900;-65
2022/11/22 14:48:47;;;;;;;;;;;;;;;;;;5092835;28;1235;-65
2022/11/22 14:51:24;;;;;;;;;;;;;;;;;;5093036;28;864;-65
2022/11/22 14:53:59;;;;;;;;;;;;;;;;;;5092992;28;837;-64
2022/11/22 14:56:30;;;;;;;;;;;;;;;;;;5073520;28;1332;-64
2022/11/22 14:59:21;;;;;;;;;;;;;;;;;;5089921;28;1918;-65
2022/11/22 15:02:01;;;;;;;;;;;;;;;;;;5091515;28;782;-64
2022/11/22 15:04:41;;;;;;;;;;;;;;;;;;5092047;28;903;-65
2022/11/22 15:07:20;;;;;;;;;;;;;;;;;;5073837;28;1194;-65
2022/11/22 15:10:00;;;;;;;;;;;;;;;;;;5092477;28;1074;-65
2022/11/22 15:12:25;;;;;;;;;;;;;;;;;;5075379;28;1277;-65
2022/11/22 15:14:51;;;;;;;;;;;;;;;;;;5075523;28;1227;-65
2022/11/22 15:17:17;;;;;;;;;;;;;;;;;;5093254;28;892;-65
2022/11/22 15:19:42;;;;;;;;;;;;;;;;;;5093730;28;1970;-65
2022/11/22 15:22:11;;;;;;;;;;;;;;;;;;5093125;28;857;-65
2022/11/22 15:24:38;;;;;;;;;;;;;;;;;;5092925;28;983;-65
2022/11/22 15:27:33;;;;;;;;;;;;;;;;;;5073355;28;1194;-65
2022/11/22 15:30:08;;;;;;;;;;;;;;;;;;5074595;28;1181;-65
2022/11/22 15:32:34;;;;;;;;;;;;;;;;;;5091686;28;947;-66
2022/11/22 15:35:00;;;;;;;;;;;;;;;;;;5091368;28;931;-65
2022/11/22 15:37:31;;;;;;;;;;;;;;;;;;5091692;28;1899;-65
2022/11/22 15:39:57;;;;;;;;;;;;;;;;;;5092004;28;857;-65
2022/11/22 15:42:22;;;;;;;;;;;;;;;;;;5073381;28;920;-65
2022/11/22 15:44:48;;;;;;;;;;;;;;;;;;5092013;28;1002;-65
2022/11/22 15:47:18;;;;;;;;;;;;;;;;;;5091550;28;947;-65
2022/11/22 15:49:44;;;;;;;;;;;;;;;;;;5091998;28;1215;-65
2022/11/22 15:52:27;;;;;;;;;;;;;;;;;;5091753;28;908;-65
2022/11/22 15:54:54;;;;;;;;;;;;;;;;;;5092142;28;890;-65
2022/11/22 15:57:19;;;;;;;;;;;;;;;;;;5091762;28;845;-66
2022/11/22 15:59:47;;;;;;;;;;;;;;;;;;5074255;28;1979;-65
2022/11/22 16:02:18;;;;;;;;;;;;;;;;;;5091711;28;840;-65
2022/11/22 16:04:48;;;;;;;;;;;;;;;;;;5092178;28;1003;-66
2022/11/22 16:07:20;;;;;;;;;;;;;;;;;;5091214;28;777;-65
2022/11/22 16:09:48;;;;;;;;;;;;;;;;;;5092089;28;888;-66
2022/11/22 16:12:34;;;;;;;;;;;;;;;;;;5090955;28;971;-65
2022/11/22 16:15:19;;;;;;;;;;;;;;;;;;5073734;28;1285;-65
2022/11/22 16:17:49;;;;;;;;;;;;;;;;;;5076845;28;1894;-65
2022/11/22 16:20:20;;;;;;;;;;;;;;;;;;5090714;28;782;-65
2022/11/22 16:23:01;;;;;;;;;;;;;;;;;;5091482;28;1050;-65
2022/11/22 16:25:30;;;;;;;;;;;;;;;;;;5091021;28;872;-65
2022/11/22 16:27:55;;;;;;;;;;;;;;;;;;5073172;28;1291;-65
2022/11/22 16:30:21;;;;;;;;;;;;;;;;;;5090036;28;939;-65
2022/11/22 16:32:47;;;;;;;;;;;;;;;;;;5074219;28;813;-65
2022/11/22 16:35:13;;;;;;;;;;;;;;;;;;5072543;28;1639;-65
2022/11/22 16:37:43;;;;;;;;;;;;;;;;;;5091710;28;1914;-65
2022/11/22 16:40:09;;;;;;;;;;;;;;;;;;5090952;28;896;-64
2022/11/22 16:42:36;;;;;;;;;;;;;;;;;;5073191;28;944;-64
2022/11/22 16:45:02;;;;;;;;;;;;;;;;;;5056036;28;1304;-64
2022/11/22 16:47:27;;;;;;;;;;;;;;;;;;5091236;28;880;-64
2022/11/22 16:49:53;;;;;;;;;;;;;;;;;;5056754;28;1187;-64
2022/11/22 16:52:18;;;;;;;;;;;;;;;;;;5091516;28;896;-64
2022/11/22 16:54:43;;;;;;;;;;;;;;;;;;5091991;28;896;-64
2022/11/22 16:57:13;;;;;;;;;;;;;;;;;;5091077;28;883;-65
2022/11/22 16:59:38;;;;;;;;;;;;;;;;;;5092191;28;1953;-65
2022/11/22 17:02:11;;;;;;;;;;;;;;;;;;5090939;28;770;-65
2022/11/22 17:04:36;;;;;;;;;;;;;;;;;;5090818;28;923;-64
2022/11/22 17:07:01;;;;;;;;;;;;;;;;;;5055635;28;1087;-65
2022/11/22 17:09:26;;;;;;;;;;;;;;;;;;5090415;28;959;-66
2022/11/22 17:11:52;;;;;;;;;;;;;;;;;;5090743;28;1044;-66
2022/11/22 17:14:17;;;;;;;;;;;;;;;;;;5089881;28;975;-66
2022/11/22 17:16:44;;;;;;;;;;;;;;;;;;5072627;28;742;-66
2022/11/22 17:19:10;;;;;;;;;;;;;;;;;;5089993;28;1894;-66
2022/11/22 17:21:35;;;;;;;;;;;;;;;;;;5090550;28;840;-65
2022/11/22 17:24:02;;;;;;;;;;;;;;;;;;5089105;28;1179;-66
2022/11/22 17:26:28;;;;;;;;;;;;;;;;;;5090253;28;884;-65
2022/11/22 17:28:53;;;;;;;;;;;;;;;;;;5072458;28;1407;-66
2022/11/22 17:31:20;;;;;;;;;;;;;;;;;;5090548;28;758;-64
2022/11/22 17:33:50;;;;;;;;;;;;;;;;;;5090857;28;904;-65
2022/11/22 17:36:18;;;;;;;;;;;;;;;;;;5071737;28;1305;-65